KJOT/JOT METAR and TAF weather

Enter ICAO airport designator
Station Type Date Time Source
KJOT METAR 2021/09/23 17:15 UTC NOAA

KJOT 231715Z AUTO 33011G15KT 10SM CLR 18/05 A2999 RMK AO2 T01800050


Station Type Date Time Source
KJOT Decoded METAR 2021/09/23 17:15 UTC NOAA

Joliet, Joliet Regional Airport, IL, United States (KJOT) 41-31-05N 088-10-31W
Sep 23, 2021 - 01:15 PM EDT / 2021.09.23 1715 UTC
Wind: from the NNW (330 degrees) at 13 MPH (11 KT) gusting to 17 MPH (15 KT):0
Visibility: 10 mile(s):0
Sky conditions: clear
Temperature: 64.4 F (18.0 C)
Dew Point: 41.0 F (5.0 C)
Relative Humidity: 42%
Pressure (altimeter): 29.99 in. Hg (1015 hPa)
ob: KJOT 231715Z AUTO 33011G15KT 10SM CLR 18/05 A2999 RMK AO2 T01800050
cycle: 17

Station Type Date Time Source
KJOT TAF UTC NOAA

Error!

Example: see airport list